Atmore, AL

3:45 AM CDT on August 28, 2014 (GMT -0500)
B.E.C. | Change Station
CLOSE
Current Station
Personal Weather Station
Location: Atmore, AL
Elevation: 272 ft
Nearby Weather Stations

Elev 272 ft 31.07 °N, 87.37 °W | Updated 27 seconds ago

Clear
Clear
74.0 °F
Feels Like 71 °F
N
3.0
Wind Variable Wind from WNW
Gusts 4.0 mph

Today
High -- | Low -- °F
--% Chance of Precip.
Yesterday
High -- | Low -- °F
Precip. -- in
6:23 AM 7:18 PM
Waxing Crescent, 7% visible
Pressure 29.94 in
Visibility 9.0 miles
Clouds Clear
Heat Index 71 °F
Dew Point 73 °F
Humidity 95%
Rainfall 0.00 in
Snow Depth Not available.
UV 0 out of 12
Pollen 8.00 out of 12
Air Quality Not available.
Flu Activity Not available.
METAR KNSE 280756Z AUTO 00000KT 9SM CLR 22/20 A2999 RMK AO2 SLP139 T02170200 PWINO $

More Conditions Fewer Conditions

Pressure 29.94 in
Visibility 9.0 miles
Clouds Clear
Heat Index 71 °F
Dew Point 73 °F
Humidity 95%
Rainfall 0.00 in
Snow Depth Not available.
UV 0 out of 12
Pollen 8.00 out of 12
Air Quality Not available.
Flu Activity Not available.
METAR KNSE 280756Z AUTO 00000KT 9SM CLR 22/20 A2999 RMK AO2 SLP139 T02170200 PWINO $

More Conditions Fewer Conditions

10-Day Weather Forecast

Almanac

Astronomy

Aug. 28, 2014 Rise Set
Actual Time 6:23 AM CDT 7:18 PM CDT
Civil Twilight 5:58 AM CDT 7:42 PM CDT
Nautical Twilight 5:29 AM CDT 8:12 PM CDT
Astronomical Twilight 4:59 AM CDT 8:42 PM CDT
Moon 9:01 AM CDT 8:57 PM CDT
Length of Visible Light 13h 43m
Length of Day
12h 54m
Tomorrow will be 1m 47s shorter.
Waxing Crescent, 7% of the Moon is Illuminated
Today
Waxing Crescent
Sep 2
First Quarter
Sep 8
Full
Sep 15
Last Quarter
Sep 24
New

Today's Extremes

State Highs State Lows

Community

WunderPhotos

Upload Photos

1,747,918 photos uploaded!

Nearby

Snow Depth

Station Depth Elevation
No new snow has been reported.

Earthquake Activity

City Distance Mag. Time & Date
No recent earthquake activity has been reported nearby.
Minimum magnitude displayed is 2.5.

Coastal Water Temperatures

Place Temperature
Mobile State Docks, AL 86.0 °F
Coast Guard Sector Mobile, AL 86.0 °F

Nearby Weather Stations